createdAt,value
2016-05-13T00:00:02.259Z,87.7
2016-05-13T00:00:12.243Z,87.6
2016-05-13T00:00:22.230Z,87.7
2016-05-13T00:00:32.245Z,86.8
2016-05-13T00:00:42.230Z,86.5
2016-05-13T00:00:52.230Z,86
2016-05-13T00:01:02.230Z,86.3
2016-05-13T00:01:12.214Z,86.2
2016-05-13T00:01:22.217Z,86.8
2016-05-13T00:01:32.217Z,86.8
2016-05-13T00:01:42.202Z,87.6
2016-05-13T00:01:52.045Z,87.2
2016-05-13T00:02:02.045Z,87.6
2016-05-13T00:02:12.186Z,87.7
2016-05-13T00:02:22.047Z,87.7
2016-05-13T00:02:32.485Z,87.8
2016-05-13T00:02:42.188Z,87.5
2016-05-13T00:02:52.188Z,87.7
2016-05-13T00:03:02.407Z,87.9
2016-05-13T00:03:12.454Z,87.5
2016-05-13T00:03:22.160Z,87.8
2016-05-13T00:03:32.144Z,87.7
2016-05-13T00:03:42.160Z,87.7
2016-05-13T00:03:52.003Z,87.7
2016-05-13T00:04:02.003Z,87.3
2016-05-13T00:04:12.144Z,86.9
2016-05-13T00:04:22.131Z,86.1
2016-05-13T00:04:32.147Z,86.7
2016-05-13T00:04:42.163Z,86.4
2016-05-13T00:04:52.147Z,86.5
2016-05-13T00:05:02.131Z,86.5
2016-05-13T00:05:12.194Z,86.1
2016-05-13T00:05:22.213Z,86.3
2016-05-13T00:05:32.150Z,86.2
2016-05-13T00:05:42.119Z,86.5
2016-05-13T00:05:52.103Z,87
2016-05-13T00:06:02.088Z,86.8
2016-05-13T00:06:12.197Z,87.4
2016-05-13T00:06:22.168Z,87.4
2016-05-13T00:06:32.074Z,87.5
2016-05-13T00:06:42.105Z,86.9
2016-05-13T00:06:52.074Z,87.6
2016-05-13T00:07:02.074Z,87.7
2016-05-13T00:07:11.933Z,87.1
2016-05-13T00:07:22.061Z,87.3
2016-05-13T00:07:32.061Z,87
2016-05-13T00:07:42.046Z,87.4
2016-05-13T00:07:52.046Z,87.1
2016-05-13T00:08:02.046Z,87.4
2016-05-13T00:08:12.124Z,87.7
2016-05-13T00:08:22.408Z,87.7
2016-05-13T00:08:32.033Z,87.7
2016-05-13T00:08:42.080Z,87.7
2016-05-13T00:08:54.017Z,87.8
2016-05-13T00:09:02.174Z,87.8
2016-05-13T00:09:12.002Z,87.7
2016-05-13T00:09:22.019Z,87.7
2016-05-13T00:09:32.004Z,87.7
2016-05-13T00:09:41.988Z,88.2
2016-05-13T00:09:52.004Z,87.3
2016-05-13T00:10:01.988Z,88.3
2016-05-13T00:10:11.973Z,88.3
2016-05-13T00:10:21.991Z,88.3
2016-05-13T00:10:31.991Z,88
2016-05-13T00:10:41.819Z,88
2016-05-13T00:10:51.976Z,88.7
2016-05-13T00:11:01.960Z,88.9
2016-05-13T00:11:11.960Z,88.2
2016-05-13T00:11:21.947Z,88
2016-05-13T00:11:31.947Z,87.8
2016-05-13T00:11:41.947Z,87.9
2016-05-13T00:11:51.791Z,87.5
2016-05-13T00:12:01.963Z,87.8
2016-05-13T00:12:11.947Z,87.7
2016-05-13T00:12:22.013Z,87.7
2016-05-13T00:12:31.763Z,87.7
2016-05-13T00:12:41.919Z,87.7
2016-05-13T00:12:51.778Z,87.8
2016-05-13T00:13:01.903Z,87.9
2016-05-13T00:13:11.903Z,87.7
2016-05-13T00:13:21.749Z,87.7
2016-05-13T00:13:31.890Z,87.7
2016-05-13T00:13:41.905Z,87.7
2016-05-13T00:13:51.890Z,88.3
2016-05-13T00:14:01.890Z,87.4
2016-05-13T00:14:11.890Z,88.4
2016-05-13T00:14:21.893Z,88.1
2016-05-13T00:14:31.862Z,88.1
2016-05-13T00:14:41.862Z,88.1
2016-05-13T00:14:51.877Z,88.1
2016-05-13T00:15:01.862Z,88.2
2016-05-13T00:15:11.705Z,87.7
2016-05-13T00:15:21.848Z,87.7
2016-05-13T00:15:31.848Z,87.7
2016-05-13T00:15:41.848Z,87.7
2016-05-13T00:15:51.832Z,87.7
2016-05-13T00:16:01.832Z,87.4
2016-05-13T00:16:11.832Z,87.3
2016-05-13T00:16:21.835Z,87.2
2016-05-13T00:16:31.835Z,87.2
2016-05-13T00:16:41.679Z,87
2016-05-13T00:16:51.835Z,87.4
2016-05-13T00:17:01.851Z,87.2
2016-05-13T00:17:11.804Z,87.7
2016-05-13T00:17:21.681Z,87.7
2016-05-13T00:17:31.665Z,87.6
2016-05-13T00:17:41.806Z,88.3
2016-05-13T00:17:51.806Z,87.7
2016-05-13T00:18:02.165Z,88
2016-05-13T00:18:11.790Z,88.6
2016-05-13T00:18:21.778Z,88.4
2016-05-13T00:18:31.778Z,88.2
2016-05-13T00:18:41.762Z,88.3
2016-05-13T00:18:51.606Z,88.1
2016-05-13T00:19:01.762Z,88.1
2016-05-13T00:19:11.762Z,88.1
2016-05-13T00:19:21.766Z,88.1
2016-05-13T00:19:31.766Z,87.7
2016-05-13T00:19:41.751Z,88.2
2016-05-13T00:19:51.735Z,88.7
2016-05-13T00:20:01.579Z,88.8
2016-05-13T00:20:11.735Z,88.2
2016-05-13T00:20:21.737Z,87.9
2016-05-13T00:20:31.721Z,88
2016-05-13T00:20:41.565Z,88
2016-05-13T00:20:51.565Z,88.2
2016-05-13T00:21:01.721Z,88.4
2016-05-13T00:21:11.721Z,88.3
2016-05-13T00:21:21.552Z,88.1
2016-05-13T00:21:31.709Z,87.9
2016-05-13T00:21:41.693Z,87.9
2016-05-13T00:21:51.693Z,87.9
2016-05-13T00:22:01.693Z,88.3
2016-05-13T00:22:11.693Z,88.5
2016-05-13T00:22:21.679Z,88.2
2016-05-13T00:22:31.679Z,87.9
2016-05-13T00:22:41.679Z,88.1
2016-05-13T00:22:51.679Z,88.2
2016-05-13T00:23:01.664Z,88.3
2016-05-13T00:23:11.664Z,87.9
2016-05-13T00:23:21.651Z,88.5
2016-05-13T00:23:31.667Z,88.4
2016-05-13T00:23:41.651Z,88.5
2016-05-13T00:23:51.636Z,88.2
2016-05-13T00:24:01.636Z,88.3
2016-05-13T00:24:11.620Z,88.5
2016-05-13T00:24:21.482Z,88.7
2016-05-13T00:24:31.623Z,87.5
2016-05-13T00:24:41.623Z,87.9
2016-05-13T00:24:51.623Z,87.9
2016-05-13T00:25:01.607Z,88
2016-05-13T00:25:11.607Z,87.7
2016-05-13T00:25:21.609Z,87.5
2016-05-13T00:25:31.594Z,88
2016-05-13T00:25:41.594Z,87.7
2016-05-13T00:25:51.594Z,88.1
2016-05-13T00:26:01.594Z,88.2
2016-05-13T00:26:11.578Z,87.6
2016-05-13T00:26:21.565Z,88.4
2016-05-13T00:26:31.581Z,88.5
2016-05-13T00:26:41.565Z,87.5
2016-05-13T00:26:51.565Z,87.7
2016-05-13T00:27:01.565Z,87.9
2016-05-13T00:27:11.565Z,87.7
2016-05-13T00:27:21.568Z,87.8
2016-05-13T00:27:31.537Z,87.7
2016-05-13T00:27:41.553Z,87.3
2016-05-13T00:27:51.537Z,87.2
2016-05-13T00:28:01.397Z,87.5
2016-05-13T00:28:11.537Z,87.6
2016-05-13T00:28:21.524Z,87.7
2016-05-13T00:28:31.524Z,87.5
2016-05-13T00:28:41.352Z,87.6
2016-05-13T00:28:51.508Z,87.7
2016-05-13T00:29:01.508Z,87.7
2016-05-13T00:29:11.508Z,87.3
2016-05-13T00:29:21.511Z,87.6
2016-05-13T00:29:31.495Z,87.6
2016-05-13T00:29:41.495Z,87.7
2016-05-13T00:29:51.480Z,87.6
2016-05-13T00:30:01.480Z,87.2
2016-05-13T00:30:11.480Z,87.3
2016-05-13T00:30:21.326Z,87.2
2016-05-13T00:30:31.498Z,86.9
2016-05-13T00:30:41.467Z,86.6
2016-05-13T00:30:51.467Z,86.5
2016-05-13T00:31:01.467Z,86.5
2016-05-13T00:31:11.467Z,86.5
2016-05-13T00:31:21.453Z,86.6
2016-05-13T00:31:31.453Z,86.6
2016-05-13T00:31:41.422Z,87.4
2016-05-13T00:31:51.438Z,87.2
2016-05-13T00:32:01.422Z,87.7
2016-05-13T00:32:11.422Z,87.7
2016-05-13T00:32:21.286Z,87.7
2016-05-13T00:32:31.536Z,87.2
2016-05-13T00:32:41.426Z,87.7
2016-05-13T00:32:51.473Z,87.6
2016-05-13T00:33:01.395Z,87.7
2016-05-13T00:33:12.051Z,87.7
2016-05-13T00:33:21.397Z,87.7
2016-05-13T00:33:31.397Z,87.8
2016-05-13T00:33:41.397Z,87.8
2016-05-13T00:33:51.381Z,87.7
2016-05-13T00:34:01.381Z,87.7
2016-05-13T00:34:11.366Z,88.1
2016-05-13T00:34:21.369Z,88.1
2016-05-13T00:34:31.369Z,88.2
2016-05-13T00:34:41.369Z,88.1
2016-05-13T00:34:51.369Z,88
2016-05-13T00:35:01.353Z,88.7
2016-05-13T00:35:11.353Z,87.5
2016-05-13T00:35:21.183Z,87.6
2016-05-13T00:35:31.324Z,88.1
2016-05-13T00:35:41.339Z,88.1
2016-05-13T00:35:51.339Z,87.9
2016-05-13T00:36:01.324Z,88.1
2016-05-13T00:36:11.324Z,87.7
2016-05-13T00:36:21.311Z,87.9
2016-05-13T00:36:31.311Z,88.2
2016-05-13T00:36:41.296Z,87.6
2016-05-13T00:36:51.296Z,87.6
2016-05-13T00:37:01.155Z,87.7
2016-05-13T00:37:11.296Z,87.7
2016-05-13T00:37:21.298Z,87.5
2016-05-13T00:37:31.298Z,87.5
2016-05-13T00:37:41.282Z,87.9
2016-05-13T00:37:51.266Z,87.6
2016-05-13T00:38:01.266Z,87.7
2016-05-13T00:38:11.266Z,87.7
2016-05-13T00:38:21.254Z,87.2
2016-05-13T00:38:31.254Z,87.8
2016-05-13T00:38:41.254Z,87.4
2016-05-13T00:38:51.238Z,87.6
2016-05-13T00:39:01.254Z,87.5
2016-05-13T00:39:11.238Z,88.2
2016-05-13T00:39:21.241Z,88.1
2016-05-13T00:39:31.241Z,87.8
2016-05-13T00:39:41.225Z,87.7
2016-05-13T00:39:51.225Z,87.7
2016-05-13T00:40:01.210Z,87.5
2016-05-13T00:40:11.210Z,87.7
2016-05-13T00:40:21.213Z,87.7
2016-05-13T00:40:31.213Z,87.8
2016-05-13T00:40:41.197Z,87.7
2016-05-13T00:40:51.197Z,88.2
2016-05-13T00:41:01.197Z,88.5
2016-05-13T00:41:11.182Z,88.2
2016-05-13T00:41:21.185Z,88.5
2016-05-13T00:41:31.028Z,87.5
2016-05-13T00:41:41.185Z,88.5
2016-05-13T00:41:51.169Z,88.5
2016-05-13T00:42:01.013Z,87.9
2016-05-13T00:42:11.153Z,87.7
2016-05-13T00:42:21.171Z,87
2016-05-13T00:42:31.155Z,87.7
2016-05-13T00:42:40.999Z,87.5
2016-05-13T00:42:50.999Z,87
2016-05-13T00:43:01.140Z,87.2
2016-05-13T00:43:11.140Z,86.8
2016-05-13T00:43:21.143Z,86.9
2016-05-13T00:43:31.127Z,86.7
2016-05-13T00:43:41.127Z,87.1
2016-05-13T00:43:51.127Z,87.2
2016-05-13T00:44:01.127Z,87.2
2016-05-13T00:44:11.111Z,87.2
2016-05-13T00:44:21.098Z,87.2
2016-05-13T00:44:31.098Z,86.8
2016-05-13T00:44:41.098Z,87.5
2016-05-13T00:44:51.098Z,87.8
2016-05-13T00:45:01.098Z,87.5
2016-05-13T00:45:11.082Z,87.2
2016-05-13T00:45:20.929Z,87.1
2016-05-13T00:45:31.070Z,86.6
2016-05-13T00:45:41.070Z,86.8
2016-05-13T00:45:51.070Z,86.8
2016-05-13T00:46:01.054Z,86.7
2016-05-13T00:46:11.054Z,86.6
2016-05-13T00:46:21.073Z,86.7
2016-05-13T00:46:31.057Z,87.5
2016-05-13T00:46:41.057Z,87.2
2016-05-13T00:46:51.041Z,87.1
2016-05-13T00:47:01.026Z,87.2
2016-05-13T00:47:10.869Z,87.7
2016-05-13T00:47:21.029Z,87.7
2016-05-13T00:47:31.013Z,87.5
2016-05-13T00:47:41.044Z,87
2016-05-13T00:47:50.872Z,88.2
2016-05-13T00:48:01.029Z,87.8
2016-05-13T00:48:11.013Z,88.1
2016-05-13T00:48:20.999Z,88.6
2016-05-13T00:48:30.999Z,88.2
2016-05-13T00:48:40.999Z,88.5
2016-05-13T00:48:50.999Z,88.8
2016-05-13T00:49:00.984Z,89.3
2016-05-13T00:49:10.828Z,89.1
2016-05-13T00:49:20.971Z,88.8
2016-05-13T00:49:30.971Z,88.6
2016-05-13T00:49:40.971Z,88
2016-05-13T00:49:50.971Z,87.7
2016-05-13T00:50:00.971Z,87.6
2016-05-13T00:50:10.956Z,88.5
2016-05-13T00:50:20.958Z,87.7
2016-05-13T00:50:30.942Z,88.2
2016-05-13T00:50:40.942Z,88.4
2016-05-13T00:50:50.926Z,88
2016-05-13T00:51:00.942Z,87.8
2016-05-13T00:51:10.926Z,87.7
2016-05-13T00:51:20.773Z,87.6
2016-05-13T00:51:30.929Z,87.2
2016-05-13T00:51:40.757Z,86.9
2016-05-13T00:51:50.773Z,87.3
2016-05-13T00:52:00.898Z,87.7
2016-05-13T00:52:10.898Z,87.4
2016-05-13T00:52:20.885Z,87.8
2016-05-13T00:52:30.885Z,87.1
2016-05-13T00:52:40.885Z,87.2
2016-05-13T00:52:50.885Z,86.9
2016-05-13T00:53:00.885Z,86.8
2016-05-13T00:53:10.885Z,86.1
2016-05-13T00:53:20.716Z,86.4
2016-05-13T00:53:30.872Z,86.6
2016-05-13T00:53:40.856Z,86.7
2016-05-13T00:53:50.700Z,86.6
2016-05-13T00:54:00.841Z,86.7
2016-05-13T00:54:10.700Z,86.5
2016-05-13T00:54:20.845Z,86
2016-05-13T00:54:30.845Z,86.7
2016-05-13T00:54:40.845Z,86.4
2016-05-13T00:54:50.829Z,86.2
2016-05-13T00:55:00.829Z,86.3
2016-05-13T00:55:10.813Z,86.2
2016-05-13T00:55:20.815Z,86.2
2016-05-13T00:55:30.815Z,86.5
2016-05-13T00:55:40.815Z,86.9
2016-05-13T00:55:50.800Z,86.8
2016-05-13T00:56:00.643Z,87.1
2016-05-13T00:56:10.800Z,86.9
2016-05-13T00:56:20.803Z,87.7
2016-05-13T00:56:30.803Z,87.7
2016-05-13T00:56:40.787Z,87.8
2016-05-13T00:56:50.787Z,87.7
2016-05-13T00:57:00.787Z,87.9
2016-05-13T00:57:10.771Z,88.1
2016-05-13T00:57:20.759Z,87.5
2016-05-13T00:57:30.790Z,87.8
2016-05-13T00:57:40.759Z,87.6
2016-05-13T00:57:50.759Z,87.6
2016-05-13T00:58:00.759Z,87.9
2016-05-13T00:58:10.743Z,87.5
2016-05-13T00:58:20.745Z,87.8
2016-05-13T00:58:30.745Z,87.7
2016-05-13T00:58:40.730Z,87.9
2016-05-13T00:58:50.730Z,87.9
2016-05-13T00:59:00.714Z,87.6
2016-05-13T00:59:10.573Z,88.2
2016-05-13T00:59:20.717Z,88.1
2016-05-13T00:59:30.701Z,88.2
2016-05-13T00:59:40.717Z,88.2
2016-05-13T00:59:50.717Z,88.1
2016-05-13T01:00:00.701Z,88.1
2016-05-13T01:00:10.545Z,87.8
2016-05-13T01:00:20.688Z,87.7
2016-05-13T01:00:30.688Z,87.6
2016-05-13T01:00:40.672Z,87.7
2016-05-13T01:00:50.672Z,87.8
2016-05-13T01:01:00.672Z,87.3
2016-05-13T01:01:10.531Z,87.4
2016-05-13T01:01:20.514Z,87.4
2016-05-13T01:01:30.670Z,87.6
2016-05-13T01:01:40.655Z,87.7
2016-05-13T01:01:50.655Z,87.5
2016-05-13T01:02:00.655Z,88
2016-05-13T01:02:10.499Z,87.9
2016-05-13T01:02:20.560Z,87.9
2016-05-13T01:02:30.701Z,87.3
2016-05-13T01:02:40.685Z,87.6
2016-05-13T01:02:50.685Z,87.6
2016-05-13T01:03:00.685Z,87.6
2016-05-13T01:03:10.670Z,87.9
2016-05-13T01:03:20.717Z,88.1
2016-05-13T01:03:30.701Z,88.2
2016-05-13T01:03:40.701Z,88.1
2016-05-13T01:03:50.685Z,88.1
2016-05-13T01:04:00.685Z,88.3
2016-05-13T01:04:10.685Z,88
2016-05-13T01:04:20.574Z,87.9
2016-05-13T01:04:30.715Z,87.6
2016-05-13T01:04:40.715Z,87.5
2016-05-13T01:04:50.715Z,87.6
2016-05-13T01:05:00.699Z,87.6
2016-05-13T01:05:10.699Z,87.7
2016-05-13T01:05:20.746Z,88.1
2016-05-13T01:05:30.730Z,88.1
2016-05-13T01:05:40.730Z,88.1
2016-05-13T01:05:50.574Z,87.9
2016-05-13T01:06:00.746Z,88
2016-05-13T01:06:10.730Z,88.3
2016-05-13T01:06:20.753Z,87.7
2016-05-13T01:06:30.753Z,88.3
2016-05-13T01:06:40.753Z,88
2016-05-13T01:06:50.737Z,88.1
2016-05-13T01:07:00.565Z,88
2016-05-13T01:07:10.737Z,87.9
2016-05-13T01:07:20.741Z,88
2016-05-13T01:07:30.725Z,88.4
2016-05-13T01:07:40.741Z,88.4
2016-05-13T01:07:50.725Z,88
2016-05-13T01:08:00.725Z,87.9
2016-05-13T01:08:10.725Z,87.8
2016-05-13T01:08:20.728Z,88.8
2016-05-13T01:08:30.728Z,88.2
2016-05-13T01:08:40.744Z,88.4
2016-05-13T01:08:50.713Z,88.1
2016-05-13T01:09:00.713Z,87.9
2016-05-13T01:09:10.713Z,88.2
2016-05-13T01:09:20.731Z,87.9
2016-05-13T01:09:30.715Z,88
2016-05-13T01:09:40.699Z,87.8
2016-05-13T01:09:50.699Z,87.5
2016-05-13T01:10:00.715Z,87.8
2016-05-13T01:10:10.699Z,87.3
2016-05-13T01:10:20.702Z,87.8
2016-05-13T01:10:30.702Z,87.6
2016-05-13T01:10:40.702Z,87.7
2016-05-13T01:10:50.686Z,87.7
2016-05-13T01:11:00.686Z,87.7
2016-05-13T01:11:10.702Z,87.5
2016-05-13T01:11:20.702Z,88.3
2016-05-13T01:11:30.702Z,88.2
2016-05-13T01:11:40.687Z,88.1
2016-05-13T01:11:50.671Z,88.6
2016-05-13T01:12:00.671Z,88.2
2016-05-13T01:12:10.687Z,88.2
2016-05-13T01:12:20.679Z,87.9
2016-05-13T01:12:30.663Z,88.2
2016-05-13T01:12:40.679Z,88.7
2016-05-13T01:12:50.663Z,88
2016-05-13T01:13:00.648Z,88.4
2016-05-13T01:13:10.648Z,88.2
2016-05-13T01:13:20.656Z,88.3
2016-05-13T01:13:30.499Z,88.2
2016-05-13T01:13:40.640Z,88.2
2016-05-13T01:13:50.640Z,88.1
2016-05-13T01:14:00.640Z,88.2
2016-05-13T01:14:10.624Z,88.4
2016-05-13T01:14:20.633Z,87.7
2016-05-13T01:14:30.493Z,87.8
2016-05-13T01:14:40.618Z,87.8
2016-05-13T01:14:50.618Z,88
2016-05-13T01:15:00.618Z,87.7
2016-05-13T01:15:10.618Z,88.3
2016-05-13T01:15:20.626Z,88.1
2016-05-13T01:15:30.454Z,88.4
2016-05-13T01:15:40.610Z,88.4
2016-05-13T01:15:50.595Z,88.1
2016-05-13T01:16:00.579Z,88
2016-05-13T01:16:10.579Z,87.9
2016-05-13T01:16:20.586Z,88
2016-05-13T01:16:30.602Z,88.4
2016-05-13T01:16:40.586Z,88.1
2016-05-13T01:16:50.570Z,88.4
2016-05-13T01:17:00.570Z,88.3
2016-05-13T01:17:10.570Z,88.2
2016-05-13T01:17:20.418Z,88.2
2016-05-13T01:17:30.699Z,88.1
2016-05-13T01:17:40.684Z,88
2016-05-13T01:17:50.543Z,88.1
2016-05-13T01:18:00.746Z,88.2
2016-05-13T01:18:10.387Z,88.1
2016-05-13T01:18:20.548Z,88.3
2016-05-13T01:18:30.532Z,88
2016-05-13T01:18:40.532Z,88.3
2016-05-13T01:18:50.532Z,88.2
2016-05-13T01:19:00.517Z,88.3
2016-05-13T01:19:10.361Z,87.7
2016-05-13T01:19:20.365Z,88.5
2016-05-13T01:19:30.505Z,88.2
2016-05-13T01:19:40.349Z,87.4
2016-05-13T01:19:50.505Z,87.5
2016-05-13T01:20:00.521Z,87.7
2016-05-13T01:20:10.505Z,87.2
2016-05-13T01:20:20.479Z,87.1
2016-05-13T01:20:30.495Z,87.4
2016-05-13T01:20:40.479Z,87.1
2016-05-13T01:20:50.479Z,87.2
2016-05-13T01:21:00.479Z,86.8
2016-05-13T01:21:10.479Z,87.5
2016-05-13T01:21:20.467Z,87.5
2016-05-13T01:21:30.467Z,88
2016-05-13T01:21:40.467Z,87.3
2016-05-13T01:21:50.452Z,88
2016-05-13T01:22:00.467Z,88.1
2016-05-13T01:22:10.452Z,88
2016-05-13T01:22:20.284Z,87.5
2016-05-13T01:22:30.424Z,87.9
2016-05-13T01:22:40.424Z,87.6
2016-05-13T01:22:50.424Z,87.9
2016-05-13T01:23:00.440Z,88
2016-05-13T01:23:10.424Z,87.9
2016-05-13T01:23:20.427Z,87.6
2016-05-13T01:23:30.412Z,88.2
2016-05-13T01:23:40.396Z,88
2016-05-13T01:23:50.240Z,87.7
2016-05-13T01:24:00.396Z,88.5
2016-05-13T01:24:13.318Z,87.9
2016-05-13T01:24:23.291Z,88.2
2016-05-13T01:24:33.260Z,87.8
2016-05-13T01:24:43.260Z,88.2
2016-05-13T01:24:53.260Z,88.2
2016-05-13T01:25:03.260Z,88.1
2016-05-13T01:25:13.260Z,87.7
2016-05-13T01:25:23.107Z,88.4
2016-05-13T01:25:33.264Z,88.3
2016-05-13T01:25:43.232Z,87.7
2016-05-13T01:25:53.232Z,88.2
2016-05-13T01:26:03.232Z,87.4
2016-05-13T01:26:13.232Z,88.3
2016-05-13T01:26:23.219Z,87.5
2016-05-13T01:26:33.219Z,87.5
2016-05-13T01:26:43.219Z,88.5
2016-05-13T01:26:53.203Z,88.3
2016-05-13T01:27:03.187Z,87.8
2016-05-13T01:27:13.203Z,87.9
2016-05-13T01:27:23.191Z,88.2
2016-05-13T01:27:33.035Z,87.6
2016-05-13T01:27:43.191Z,87.5
2016-05-13T01:27:53.176Z,87.2
2016-05-13T01:28:03.160Z,87.9
2016-05-13T01:28:13.176Z,87
2016-05-13T01:28:23.023Z,86.9
2016-05-13T01:28:33.163Z,87
2016-05-13T01:28:43.163Z,87.1
2016-05-13T01:28:53.194Z,87
2016-05-13T01:29:03.179Z,86.9
2016-05-13T01:29:13.148Z,86.9
2016-05-13T01:29:22.978Z,87.6
2016-05-13T01:29:32.978Z,87.6
2016-05-13T01:29:43.134Z,87.2
2016-05-13T01:29:53.134Z,87.1
2016-05-13T01:30:03.134Z,87.3
2016-05-13T01:30:13.118Z,86.9
2016-05-13T01:30:23.122Z,87.6
2016-05-13T01:30:33.122Z,87.8
2016-05-13T01:30:43.107Z,87.7
2016-05-13T01:30:53.107Z,88.1
2016-05-13T01:31:03.107Z,87.8
2016-05-13T01:31:13.107Z,87.6
2016-05-13T01:31:23.094Z,87
2016-05-13T01:31:33.110Z,86.9
2016-05-13T01:31:43.078Z,87
2016-05-13T01:31:53.078Z,87.1
2016-05-13T01:32:03.078Z,87.1
2016-05-13T01:32:13.078Z,87.1
2016-05-13T01:32:22.909Z,87.3
2016-05-13T01:32:33.346Z,87
2016-05-13T01:32:42.909Z,87
2016-05-13T01:32:53.049Z,87.1
2016-05-13T01:33:03.643Z,87.6
2016-05-13T01:33:13.049Z,87.6
2016-05-13T01:33:23.052Z,87.7
2016-05-13T01:33:33.037Z,87.8
2016-05-13T01:33:43.021Z,87.6
2016-05-13T01:33:52.865Z,87.6
2016-05-13T01:34:03.021Z,87.8
2016-05-13T01:34:12.849Z,87.4
2016-05-13T01:34:23.023Z,87.6
2016-05-13T01:34:32.851Z,87.7
2016-05-13T01:34:43.007Z,87.6
2016-05-13T01:34:53.007Z,87.9
2016-05-13T01:35:02.992Z,87.8
2016-05-13T01:35:12.992Z,87.8
2016-05-13T01:35:22.995Z,87.6
2016-05-13T01:35:32.995Z,88.2
2016-05-13T01:35:42.979Z,87.4
2016-05-13T01:35:52.963Z,87.4
2016-05-13T01:36:02.963Z,88.2
2016-05-13T01:36:12.963Z,87.1
2016-05-13T01:36:22.967Z,87.4
2016-05-13T01:36:32.967Z,88.1
2016-05-13T01:36:42.952Z,88.5
2016-05-13T01:36:52.967Z,87.7
2016-05-13T01:37:02.936Z,87.7
2016-05-13T01:37:12.936Z,87.6
2016-05-13T01:37:22.923Z,87.7
2016-05-13T01:37:32.923Z,87.8
2016-05-13T01:37:42.766Z,87.7
2016-05-13T01:37:52.923Z,87.8
2016-05-13T01:38:02.907Z,87.7
2016-05-13T01:38:12.923Z,87
2016-05-13T01:38:22.894Z,86.9
2016-05-13T01:38:32.910Z,87.1
2016-05-13T01:38:42.910Z,87.3
2016-05-13T01:38:52.894Z,87.1
2016-05-13T01:39:02.879Z,87.1
2016-05-13T01:39:12.879Z,87
2016-05-13T01:39:22.896Z,87.6
2016-05-13T01:39:32.881Z,87.5
2016-05-13T01:39:42.881Z,87.8
2016-05-13T01:39:52.881Z,87.6
2016-05-13T01:40:02.865Z,87.7
2016-05-13T01:40:12.865Z,87.1
2016-05-13T01:40:22.852Z,87
2016-05-13T01:40:32.696Z,87.2
2016-05-13T01:40:42.837Z,87
2016-05-13T01:40:52.837Z,87.1
2016-05-13T01:41:02.837Z,86.9
2016-05-13T01:41:12.681Z,86.8
2016-05-13T01:41:22.824Z,86.4
2016-05-13T01:41:32.824Z,86.5
2016-05-13T01:41:42.824Z,86.5
2016-05-13T01:41:52.824Z,86.6
2016-05-13T01:42:02.809Z,86.8
2016-05-13T01:42:12.809Z,86.9
2016-05-13T01:42:22.811Z,86.6
2016-05-13T01:42:32.795Z,86.9
2016-05-13T01:42:42.795Z,86.4
2016-05-13T01:42:52.779Z,86
2016-05-13T01:43:02.779Z,85.9
2016-05-13T01:43:12.779Z,86
2016-05-13T01:43:22.767Z,86.7
2016-05-13T01:43:32.767Z,86.5
2016-05-13T01:43:42.767Z,86.5
2016-05-13T01:43:52.767Z,86.6
2016-05-13T01:44:02.767Z,86.5
2016-05-13T01:44:12.767Z,86.9
2016-05-13T01:44:22.754Z,86.4
2016-05-13T01:44:32.754Z,86.2
2016-05-13T01:44:42.723Z,86.4
2016-05-13T01:44:52.723Z,86.1
2016-05-13T01:45:02.723Z,86.3
2016-05-13T01:45:12.723Z,86.4
2016-05-13T01:45:22.725Z,86.7
2016-05-13T01:45:32.725Z,86.5
2016-05-13T01:45:42.725Z,86.9
2016-05-13T01:45:52.709Z,86.7
2016-05-13T01:46:02.694Z,87.3
2016-05-13T01:46:12.694Z,87
2016-05-13T01:46:22.697Z,87.1
2016-05-13T01:46:32.681Z,87
2016-05-13T01:46:42.681Z,87.2
2016-05-13T01:46:52.681Z,86.9
2016-05-13T01:47:02.681Z,87.2
2016-05-13T01:47:12.525Z,87.1
2016-05-13T01:47:22.668Z,87.1
2016-05-13T01:47:32.512Z,87.2
2016-05-13T01:47:42.496Z,87
2016-05-13T01:47:52.871Z,86.9
2016-05-13T01:48:02.871Z,87.2
2016-05-13T01:48:12.637Z,86.5
2016-05-13T01:48:22.656Z,86.2
2016-05-13T01:48:32.656Z,86.3
2016-05-13T01:48:42.640Z,86.3
2016-05-13T01:48:52.624Z,86.4
2016-05-13T01:49:02.624Z,86.3
2016-05-13T01:49:12.468Z,86.4
2016-05-13T01:49:22.627Z,86.5
2016-05-13T01:49:32.612Z,86.1
2016-05-13T01:49:42.627Z,86.3
2016-05-13T01:49:52.596Z,86.3
2016-05-13T01:50:02.596Z,86.4
2016-05-13T01:50:12.581Z,86.8
2016-05-13T01:50:22.583Z,86.6
2016-05-13T01:50:32.583Z,86.9
2016-05-13T01:50:42.583Z,86.5
2016-05-13T01:50:52.583Z,86.4
2016-05-13T01:51:02.567Z,86.2
2016-05-13T01:51:12.567Z,86.6
2016-05-13T01:51:22.554Z,85.9
2016-05-13T01:51:32.554Z,86.9
2016-05-13T01:51:42.554Z,86.6
2016-05-13T01:51:52.554Z,86.5
2016-05-13T01:52:02.539Z,86.6
2016-05-13T01:52:12.554Z,86.5
2016-05-13T01:52:22.541Z,87.4
2016-05-13T01:52:32.525Z,87
2016-05-13T01:52:42.525Z,87.2
2016-05-13T01:52:52.525Z,87.4
2016-05-13T01:53:02.509Z,86.9
2016-05-13T01:53:12.509Z,87.7
2016-05-13T01:53:22.512Z,87.4
2016-05-13T01:53:32.497Z,87.6
2016-05-13T01:53:42.512Z,87.7
2016-05-13T01:53:52.497Z,87.6
2016-05-13T01:54:02.341Z,87.8
2016-05-13T01:54:12.481Z,87.7
2016-05-13T01:54:22.483Z,87.7
2016-05-13T01:54:32.483Z,87.5
2016-05-13T01:54:42.468Z,87.7
2016-05-13T01:54:52.468Z,87.6
2016-05-13T01:55:02.468Z,87.6
2016-05-13T01:55:12.468Z,87.5
2016-05-13T01:55:22.455Z,87.6
2016-05-13T01:55:32.455Z,87.4
2016-05-13T01:55:42.439Z,87.5
2016-05-13T01:55:52.439Z,87.7
2016-05-13T01:56:02.439Z,87.8
2016-05-13T01:56:12.439Z,87.8
2016-05-13T01:56:22.427Z,87.6
2016-05-13T01:56:32.427Z,87.5
2016-05-13T01:56:42.427Z,87.6
2016-05-13T01:56:52.255Z,87.7
2016-05-13T01:57:02.411Z,87.6
2016-05-13T01:57:12.411Z,87.6
2016-05-13T01:57:22.258Z,87.6
2016-05-13T01:57:32.398Z,86.8
2016-05-13T01:57:42.398Z,87.2
2016-05-13T01:57:52.383Z,87.2
2016-05-13T01:58:02.383Z,87.6
2016-05-13T01:58:12.367Z,87.8
2016-05-13T01:58:22.386Z,87.5
2016-05-13T01:58:32.370Z,87.4
2016-05-13T01:58:42.417Z,87.9
2016-05-13T01:58:52.370Z,87.3
2016-05-13T01:59:02.355Z,87.8
2016-05-13T01:59:12.355Z,87.4
2016-05-13T01:59:22.341Z,88.4
2016-05-13T01:59:32.185Z,87.9
2016-05-13T01:59:42.341Z,88.2
2016-05-13T01:59:52.325Z,88.2
2016-05-13T02:00:02.325Z,87.6
2016-05-13T02:00:12.325Z,88
2016-05-13T02:00:22.328Z,87.5
2016-05-13T02:00:32.328Z,88.2
2016-05-13T02:00:42.313Z,88.4
2016-05-13T02:00:52.313Z,87.7
2016-05-13T02:01:02.313Z,88.6
2016-05-13T02:01:12.297Z,87.9
2016-05-13T02:01:22.299Z,87.8
2016-05-13T02:01:32.143Z,88.2
2016-05-13T02:01:42.299Z,88.1
2016-05-13T02:01:52.283Z,88.4
2016-05-13T02:02:02.299Z,87.7
2016-05-13T02:02:12.283Z,87.7
2016-05-13T02:02:22.146Z,87.5
2016-05-13T02:02:32.271Z,87.6
2016-05-13T02:02:42.271Z,87.3
2016-05-13T02:02:52.630Z,87.7
2016-05-13T02:03:02.271Z,87.7
2016-05-13T02:03:12.255Z,87.6
2016-05-13T02:03:22.258Z,87.8
2016-05-13T02:03:32.243Z,87.8
2016-05-13T02:03:42.243Z,87.8
2016-05-13T02:03:52.243Z,87.5
2016-05-13T02:04:02.227Z,87.7
2016-05-13T02:04:12.227Z,87.6
2016-05-13T02:04:22.214Z,87.1
2016-05-13T02:04:32.214Z,87.6
2016-05-13T02:04:42.214Z,87.4
2016-05-13T02:04:52.199Z,87.7
2016-05-13T02:05:02.199Z,87.6
2016-05-13T02:05:12.199Z,87.5
2016-05-13T02:05:22.185Z,87.7
2016-05-13T02:05:32.185Z,87.2
2016-05-13T02:05:42.185Z,87
2016-05-13T02:05:52.169Z,86.9
2016-05-13T02:06:02.169Z,87.3
2016-05-13T02:06:12.169Z,87.1
2016-05-13T02:06:22.172Z,87.1
2016-05-13T02:06:32.172Z,87
2016-05-13T02:06:42.001Z,86.9
2016-05-13T02:06:52.157Z,87.9
2016-05-13T02:07:02.157Z,87.5
2016-05-13T02:07:12.141Z,87.7
2016-05-13T02:07:22.143Z,88
2016-05-13T02:07:32.143Z,87.9
2016-05-13T02:07:42.128Z,88.4
2016-05-13T02:07:51.956Z,88.2
2016-05-13T02:08:02.112Z,87.8
2016-05-13T02:08:12.112Z,88
2016-05-13T02:08:22.116Z,88
2016-05-13T02:08:32.116Z,88.1
2016-05-13T02:08:42.116Z,88.2
2016-05-13T02:08:52.100Z,87.5
2016-05-13T02:09:02.085Z,86.9
2016-05-13T02:09:12.085Z,87.5
2016-05-13T02:09:22.087Z,88.1
2016-05-13T02:09:31.915Z,88
2016-05-13T02:09:42.087Z,88.6
2016-05-13T02:09:52.071Z,88.2
2016-05-13T02:10:02.071Z,88.1
2016-05-13T02:10:12.071Z,88
2016-05-13T02:10:22.058Z,87.8
2016-05-13T02:10:31.902Z,87.9
2016-05-13T02:10:42.043Z,87.9
2016-05-13T02:10:52.043Z,87.9
2016-05-13T02:11:02.043Z,87.8
2016-05-13T02:11:11.887Z,88
2016-05-13T02:11:22.030Z,88
2016-05-13T02:11:32.030Z,88
2016-05-13T02:11:42.030Z,87.8
2016-05-13T02:11:52.015Z,88
2016-05-13T02:12:01.999Z,88.3
2016-05-13T02:12:11.999Z,88.1
2016-05-13T02:12:22.017Z,87.6
2016-05-13T02:12:32.017Z,87.8
2016-05-13T02:12:42.001Z,88
2016-05-13T02:12:52.001Z,88
2016-05-13T02:13:01.985Z,88.5
2016-05-13T02:13:11.970Z,87.9
2016-05-13T02:13:21.972Z,87.8
2016-05-13T02:13:31.956Z,87.9
2016-05-13T02:13:41.972Z,88.7
2016-05-13T02:13:51.972Z,88.6